DAL1701 KMSP-KHRL
Flight info
| Callsign | DAL1701 |
|---|---|
| Flight time | 2h 54m |
| Altitude | 36000 |
| Route | ORSKY3 ONTIJ ASIIX/N0453F370 JSONN/N0456F360 WEITT CNU TUL/N0454F380 BYP CLL CRP |
| Aircraft | A319/M-SDE3FGHIRWY/LB1 |
Departure
| Time | 2026-05-05 16:46 |
|---|---|
| Airport | Minneapolis–Saint Paul International Airport / Wold–Chamberlain Field (KMSP) |
Arrival
| Time | 2026-05-05 19:41 |
|---|---|
| Airport | Valley International Airport (KHRL) |
| Time | Latitude | Longitude | Altitude | Speed | Heading |
|---|---|---|---|---|---|
| 2026-05-05 16:17 | 44.88346 | -93.21286 | 825 ft | 0 kts | 217° |
| 2026-05-05 16:35 | 44.88356 | -93.21276 | 825 ft | 4 kts | 217° |
| 2026-05-05 16:35 | 44.88375 | -93.21256 | 824 ft | 4 kts | 204° |
| 2026-05-05 16:36 | 44.88395 | -93.21258 | 825 ft | 4 kts | 120° |
| 2026-05-05 16:36 | 44.88405 | -93.21292 | 823 ft | 3 kts | 113° |
| 2026-05-05 16:36 | 44.88421 | -93.21320 | 824 ft | 4 kts | 144° |
| 2026-05-05 16:36 | 44.88436 | -93.21347 | 825 ft | 4 kts | 101° |
| 2026-05-05 16:37 | 44.88436 | -93.21371 | 825 ft | 4 kts | 342° |
| 2026-05-05 16:37 | 44.88423 | -93.21347 | 823 ft | 3 kts | 291° |
| 2026-05-05 16:37 | 44.88422 | -93.21343 | 825 ft | 0 kts | 291° |
| 2026-05-05 16:40 | 44.88427 | -93.21361 | 825 ft | 8 kts | 291° |
| 2026-05-05 16:40 | 44.88459 | -93.21472 | 825 ft | 0 kts | 293° |
| 2026-05-05 16:40 | 44.88459 | -93.21473 | 825 ft | 1 kts | 293° |
| 2026-05-05 16:41 | 44.88469 | -93.21498 | 825 ft | 5 kts | 299° |
| 2026-05-05 16:41 | 44.88506 | -93.21579 | 824 ft | 17 kts | 300° |
| 2026-05-05 16:41 | 44.88454 | -93.21739 | 824 ft | 20 kts | 225° |
| 2026-05-05 16:41 | 44.88343 | -93.21845 | 825 ft | 19 kts | 176° |
| 2026-05-05 16:42 | 44.88254 | -93.21708 | 825 ft | 21 kts | 123° |
| 2026-05-05 16:42 | 44.88177 | -93.21532 | 822 ft | 21 kts | 122° |
| 2026-05-05 16:42 | 44.88063 | -93.21423 | 824 ft | 19 kts | 129° |
| 2026-05-05 16:42 | 44.88013 | -93.21258 | 825 ft | 18 kts | 90° |
| 2026-05-05 16:43 | 44.87984 | -93.21082 | 825 ft | 20 kts | 123° |
| 2026-05-05 16:43 | 44.87910 | -93.20913 | 824 ft | 21 kts | 120° |
| 2026-05-05 16:43 | 44.87833 | -93.20731 | 825 ft | 21 kts | 122° |
| 2026-05-05 16:43 | 44.87748 | -93.20560 | 824 ft | 22 kts | 121° |
| 2026-05-05 16:44 | 44.87668 | -93.20374 | 825 ft | 23 kts | 121° |
| 2026-05-05 16:44 | 44.87587 | -93.20188 | 824 ft | 22 kts | 121° |
| 2026-05-05 16:44 | 44.87510 | -93.20029 | 825 ft | 14 kts | 151° |
| 2026-05-05 16:44 | 44.87451 | -93.20053 | 826 ft | 0 kts | 211° |
| 2026-05-05 16:45 | 44.87448 | -93.20055 | 826 ft | 3 kts | 212° |
| 2026-05-05 16:45 | 44.87390 | -93.20105 | 827 ft | 16 kts | 212° |
| 2026-05-05 16:45 | 44.87404 | -93.20243 | 826 ft | 18 kts | 303° |
| 2026-05-05 16:45 | 44.87582 | -93.20650 | 823 ft | 82 kts | 301° |
| 2026-05-05 16:46 | 44.87978 | -93.21562 | 823 ft | 137 kts | 301° |
| 2026-05-05 16:46 | 44.88486 | -93.22795 | 1310 ft | 142 kts | 302° |
| 2026-05-05 16:46 | 44.88981 | -93.24039 | 2155 ft | 145 kts | 298° |
| 2026-05-05 16:46 | 44.89287 | -93.25393 | 2618 ft | 159 kts | 270° |
| 2026-05-05 16:47 | 44.88855 | -93.26988 | 2897 ft | 188 kts | 244° |
| 2026-05-05 16:47 | 44.88082 | -93.28616 | 3243 ft | 210 kts | 240° |
| 2026-05-05 16:47 | 44.87200 | -93.30412 | 3606 ft | 235 kts | 240° |
| 2026-05-05 16:47 | 44.86103 | -93.32243 | 4232 ft | 256 kts | 222° |
| 2026-05-05 16:48 | 44.84459 | -93.33340 | 5126 ft | 268 kts | 203° |
| 2026-05-05 16:48 | 44.82700 | -93.34256 | 6027 ft | 270 kts | 208° |
| 2026-05-05 16:48 | 44.80956 | -93.35291 | 6903 ft | 273 kts | 211° |
| 2026-05-05 16:48 | 44.79214 | -93.36362 | 7855 ft | 273 kts | 212° |
| 2026-05-05 16:49 | 44.77480 | -93.37431 | 8838 ft | 272 kts | 212° |
| 2026-05-05 16:49 | 44.75744 | -93.38488 | 9817 ft | 272 kts | 213° |
| 2026-05-05 16:49 | 44.73983 | -93.39553 | 10391 ft | 285 kts | 213° |
| 2026-05-05 16:49 | 44.72090 | -93.40706 | 10657 ft | 308 kts | 212° |
| 2026-05-05 16:50 | 44.70075 | -93.41913 | 11168 ft | 320 kts | 211° |
| 2026-05-05 16:50 | 44.68005 | -93.43124 | 11858 ft | 326 kts | 211° |
| 2026-05-05 16:50 | 44.65889 | -93.44346 | 12597 ft | 330 kts | 211° |
| 2026-05-05 16:50 | 44.63761 | -93.45575 | 13308 ft | 335 kts | 211° |
| 2026-05-05 16:51 | 44.61582 | -93.46839 | 13981 ft | 339 kts | 212° |
| 2026-05-05 16:51 | 44.59508 | -93.48351 | 14618 ft | 336 kts | 218° |
| 2026-05-05 16:51 | 44.57482 | -93.50004 | 15291 ft | 338 kts | 218° |
| 2026-05-05 16:51 | 44.55443 | -93.51664 | 15967 ft | 340 kts | 218° |
| 2026-05-05 16:52 | 44.53385 | -93.53333 | 16635 ft | 343 kts | 218° |
| 2026-05-05 16:52 | 44.51314 | -93.55008 | 17297 ft | 345 kts | 218° |
| 2026-05-05 16:52 | 44.49224 | -93.56699 | 17945 ft | 348 kts | 217° |
| 2026-05-05 16:52 | 44.47123 | -93.58399 | 18547 ft | 350 kts | 217° |
| 2026-05-05 16:53 | 44.45006 | -93.60109 | 19116 ft | 352 kts | 218° |
| 2026-05-05 16:53 | 44.42877 | -93.61831 | 19689 ft | 355 kts | 218° |
| 2026-05-05 16:53 | 44.40734 | -93.63565 | 20251 ft | 357 kts | 218° |
| 2026-05-05 16:53 | 44.38579 | -93.65309 | 20812 ft | 360 kts | 218° |
| 2026-05-05 16:54 | 44.36405 | -93.67066 | 21378 ft | 362 kts | 218° |
| 2026-05-05 16:54 | 44.34218 | -93.68833 | 21932 ft | 364 kts | 218° |
| 2026-05-05 16:54 | 44.32014 | -93.70609 | 22458 ft | 367 kts | 218° |
| 2026-05-05 16:54 | 44.29796 | -93.72396 | 22969 ft | 370 kts | 218° |
| 2026-05-05 16:55 | 44.27560 | -93.74197 | 23480 ft | 372 kts | 218° |
| 2026-05-05 16:55 | 44.26073 | -93.75392 | 23768 ft | 374 kts | 218° |
| 2026-05-05 16:55 | 44.23810 | -93.77205 | 24175 ft | 376 kts | 218° |
| 2026-05-05 16:55 | 44.21535 | -93.79026 | 24583 ft | 379 kts | 218° |
| 2026-05-05 16:56 | 44.19245 | -93.80861 | 24979 ft | 381 kts | 218° |
| 2026-05-05 16:56 | 44.16942 | -93.82708 | 25366 ft | 383 kts | 218° |
| 2026-05-05 16:56 | 44.14625 | -93.84561 | 25753 ft | 385 kts | 218° |
| 2026-05-05 16:56 | 44.12295 | -93.86420 | 26125 ft | 388 kts | 218° |
| 2026-05-05 16:57 | 44.09949 | -93.88291 | 26503 ft | 390 kts | 218° |
| 2026-05-05 16:57 | 44.07586 | -93.90174 | 26877 ft | 392 kts | 218° |
| 2026-05-05 16:57 | 44.05211 | -93.92067 | 27250 ft | 395 kts | 218° |
| 2026-05-05 16:57 | 44.02823 | -93.93970 | 27616 ft | 397 kts | 218° |
| 2026-05-05 16:58 | 44.00418 | -93.95887 | 27975 ft | 400 kts | 218° |
| 2026-05-05 16:58 | 43.97999 | -93.97812 | 28329 ft | 402 kts | 218° |
| 2026-05-05 16:58 | 43.95561 | -93.99745 | 28680 ft | 405 kts | 217° |
| 2026-05-05 16:58 | 43.93113 | -94.01688 | 29015 ft | 407 kts | 217° |
| 2026-05-05 16:59 | 43.90646 | -94.03649 | 29351 ft | 409 kts | 217° |
| 2026-05-05 16:59 | 43.88167 | -94.05615 | 29671 ft | 412 kts | 217° |
| 2026-05-05 16:59 | 43.85674 | -94.07581 | 29988 ft | 414 kts | 217° |
| 2026-05-05 16:59 | 43.83158 | -94.09562 | 30248 ft | 416 kts | 217° |
| 2026-05-05 17:00 | 43.80633 | -94.11553 | 30518 ft | 418 kts | 217° |
| 2026-05-05 17:00 | 43.78099 | -94.13555 | 30792 ft | 420 kts | 217° |
| 2026-05-05 17:00 | 43.75555 | -94.15559 | 31060 ft | 422 kts | 217° |
| 2026-05-05 17:00 | 43.73003 | -94.17560 | 31396 ft | 421 kts | 217° |
| 2026-05-05 17:01 | 43.70460 | -94.19549 | 31806 ft | 419 kts | 217° |
| 2026-05-05 17:01 | 43.67933 | -94.21528 | 32210 ft | 418 kts | 217° |
| 2026-05-05 17:01 | 43.65405 | -94.23514 | 32605 ft | 416 kts | 217° |
| 2026-05-05 17:01 | 43.62891 | -94.25493 | 32991 ft | 415 kts | 217° |
| 2026-05-05 17:02 | 43.60385 | -94.27463 | 33383 ft | 414 kts | 217° |
| 2026-05-05 17:02 | 43.57886 | -94.29422 | 33783 ft | 413 kts | 217° |
| 2026-05-05 17:02 | 43.55392 | -94.31371 | 34138 ft | 412 kts | 217° |
| 2026-05-05 17:02 | 43.52902 | -94.33314 | 34444 ft | 411 kts | 217° |
| 2026-05-05 17:03 | 43.50410 | -94.35258 | 34704 ft | 412 kts | 217° |
| 2026-05-05 17:03 | 43.47909 | -94.37209 | 34960 ft | 413 kts | 217° |
| 2026-05-05 17:03 | 43.45407 | -94.39158 | 35214 ft | 414 kts | 217° |
| 2026-05-05 17:03 | 43.42899 | -94.41107 | 35456 ft | 415 kts | 217° |
| 2026-05-05 17:04 | 43.40383 | -94.43060 | 35690 ft | 415 kts | 217° |
| 2026-05-05 17:04 | 43.37863 | -94.45016 | 35912 ft | 416 kts | 217° |
| 2026-05-05 17:04 | 43.35338 | -94.46974 | 36018 ft | 417 kts | 217° |
| 2026-05-05 17:04 | 43.32814 | -94.48928 | 36027 ft | 416 kts | 217° |
| 2026-05-05 17:05 | 43.27404 | -94.52001 | 36031 ft | 432 kts | 200° |
| 2026-05-05 17:05 | 43.21507 | -94.53745 | 36027 ft | 434 kts | 200° |
| 2026-05-05 17:06 | 43.15613 | -94.55507 | 36028 ft | 434 kts | 200° |
| 2026-05-05 17:06 | 43.09706 | -94.57270 | 36023 ft | 434 kts | 200° |
| 2026-05-05 17:07 | 43.03806 | -94.59020 | 36019 ft | 434 kts | 200° |
| 2026-05-05 17:07 | 42.97908 | -94.60766 | 36015 ft | 434 kts | 200° |
| 2026-05-05 17:08 | 42.92004 | -94.62510 | 36015 ft | 434 kts | 200° |
| 2026-05-05 17:08 | 42.86103 | -94.64249 | 36022 ft | 434 kts | 200° |
| 2026-05-05 17:09 | 42.80206 | -94.65991 | 36020 ft | 433 kts | 200° |
| 2026-05-05 17:09 | 42.74322 | -94.67718 | 36025 ft | 433 kts | 200° |
| 2026-05-05 17:10 | 42.68439 | -94.69439 | 36025 ft | 432 kts | 200° |
| 2026-05-05 17:10 | 42.62569 | -94.71155 | 36029 ft | 431 kts | 200° |
| 2026-05-05 17:11 | 42.56707 | -94.72868 | 36024 ft | 430 kts | 200° |
| 2026-05-05 17:11 | 42.50852 | -94.74573 | 36023 ft | 430 kts | 200° |
| 2026-05-05 17:12 | 42.45011 | -94.76274 | 36020 ft | 429 kts | 200° |
| 2026-05-05 17:12 | 42.39178 | -94.77978 | 36022 ft | 429 kts | 200° |
| 2026-05-05 17:13 | 42.33345 | -94.79669 | 36024 ft | 429 kts | 200° |
| 2026-05-05 17:13 | 42.27516 | -94.81351 | 36025 ft | 429 kts | 200° |
| 2026-05-05 17:14 | 42.21685 | -94.83040 | 36030 ft | 428 kts | 200° |
| 2026-05-05 17:14 | 42.15853 | -94.84726 | 36033 ft | 428 kts | 200° |
| 2026-05-05 17:15 | 42.10028 | -94.86396 | 36032 ft | 428 kts | 200° |
| 2026-05-05 17:15 | 42.04205 | -94.88071 | 36032 ft | 428 kts | 200° |
| 2026-05-05 17:16 | 41.98380 | -94.89744 | 36031 ft | 428 kts | 200° |
| 2026-05-05 17:16 | 41.92563 | -94.91406 | 36027 ft | 428 kts | 200° |
| 2026-05-05 17:17 | 41.86737 | -94.93069 | 36026 ft | 428 kts | 200° |
| 2026-05-05 17:17 | 41.80913 | -94.94732 | 36026 ft | 428 kts | 200° |
| 2026-05-05 17:18 | 41.75091 | -94.96390 | 36026 ft | 428 kts | 200° |
| 2026-05-05 17:18 | 41.69264 | -94.98045 | 36025 ft | 428 kts | 200° |
| 2026-05-05 17:19 | 41.63435 | -94.99698 | 36024 ft | 428 kts | 200° |
| 2026-05-05 17:19 | 41.57568 | -95.01358 | 36023 ft | 428 kts | 200° |
| 2026-05-05 17:20 | 41.51782 | -95.02995 | 36028 ft | 428 kts | 200° |
| 2026-05-05 17:20 | 41.45910 | -95.04654 | 36039 ft | 429 kts | 201° |
| 2026-05-05 17:21 | 41.40107 | -95.06284 | 36048 ft | 429 kts | 201° |
| 2026-05-05 17:22 | 41.31342 | -95.08731 | 36053 ft | 429 kts | 201° |
| 2026-05-05 17:22 | 41.25500 | -95.10369 | 36050 ft | 429 kts | 201° |
| 2026-05-05 17:23 | 41.19672 | -95.12008 | 36049 ft | 428 kts | 201° |
| 2026-05-05 17:23 | 41.13797 | -95.13652 | 36051 ft | 428 kts | 201° |
| 2026-05-05 17:24 | 41.07969 | -95.15272 | 36056 ft | 428 kts | 201° |
| 2026-05-05 17:24 | 41.02174 | -95.16880 | 36056 ft | 428 kts | 201° |
| 2026-05-05 17:25 | 40.96346 | -95.18499 | 36060 ft | 428 kts | 201° |
| 2026-05-05 17:25 | 40.90486 | -95.20125 | 36057 ft | 428 kts | 201° |
| 2026-05-05 17:26 | 40.84659 | -95.21731 | 36054 ft | 427 kts | 201° |
| 2026-05-05 17:26 | 40.78839 | -95.23342 | 35994 ft | 425 kts | 206° |
| 2026-05-05 17:26 | 40.75983 | -95.24118 | 36052 ft | 413 kts | 207° |
| 2026-05-05 17:27 | 40.73200 | -95.24866 | 36054 ft | 406 kts | 207° |
| 2026-05-05 17:27 | 40.67702 | -95.26377 | 36052 ft | 402 kts | 207° |
| 2026-05-05 17:28 | 40.62236 | -95.27904 | 36052 ft | 402 kts | 207° |
| 2026-05-05 17:28 | 40.56768 | -95.29415 | 36050 ft | 402 kts | 207° |
| 2026-05-05 17:29 | 40.51298 | -95.30910 | 36043 ft | 401 kts | 207° |
| 2026-05-05 17:29 | 40.45823 | -95.32405 | 36035 ft | 401 kts | 207° |
| 2026-05-05 17:30 | 40.40355 | -95.33897 | 36025 ft | 401 kts | 207° |
| 2026-05-05 17:30 | 40.34886 | -95.35382 | 36024 ft | 401 kts | 207° |
| 2026-05-05 17:31 | 40.29417 | -95.36865 | 36028 ft | 401 kts | 207° |
| 2026-05-05 17:31 | 40.26628 | -95.37446 | 36031 ft | 416 kts | 199° |
| 2026-05-05 17:31 | 40.23675 | -95.37455 | 36030 ft | 428 kts | 194° |
| 2026-05-05 17:32 | 40.17714 | -95.37231 | 36032 ft | 429 kts | 194° |
| 2026-05-05 17:32 | 40.11753 | -95.37015 | 36034 ft | 428 kts | 194° |
| 2026-05-05 17:33 | 40.05795 | -95.36809 | 36031 ft | 428 kts | 194° |
| 2026-05-05 17:33 | 40.00845 | -95.36637 | 36031 ft | 428 kts | 194° |
| 2026-05-05 17:34 | 39.94883 | -95.36435 | 36032 ft | 428 kts | 194° |
| 2026-05-05 17:34 | 39.88928 | -95.36240 | 36028 ft | 428 kts | 194° |
| 2026-05-05 17:35 | 39.82972 | -95.36039 | 36024 ft | 428 kts | 194° |
| 2026-05-05 17:35 | 39.80043 | -95.36175 | 36024 ft | 416 kts | 200° |
| 2026-05-05 17:35 | 39.77155 | -95.36472 | 36023 ft | 416 kts | 200° |
| 2026-05-05 17:36 | 39.71385 | -95.37091 | 36018 ft | 416 kts | 200° |
| 2026-05-05 17:36 | 39.65604 | -95.37692 | 36016 ft | 417 kts | 200° |
| 2026-05-05 17:37 | 39.59819 | -95.38271 | 36018 ft | 417 kts | 200° |
| 2026-05-05 17:37 | 39.54029 | -95.38861 | 36026 ft | 417 kts | 200° |
| 2026-05-05 17:38 | 39.48242 | -95.39455 | 36022 ft | 417 kts | 200° |
| 2026-05-05 17:38 | 39.42453 | -95.40050 | 36020 ft | 417 kts | 200° |
| 2026-05-05 17:39 | 39.36657 | -95.40635 | 36020 ft | 418 kts | 200° |
| 2026-05-05 17:39 | 39.30855 | -95.41230 | 36028 ft | 419 kts | 200° |
| 2026-05-05 17:40 | 39.25039 | -95.41824 | 36033 ft | 419 kts | 200° |
| 2026-05-05 17:40 | 39.19219 | -95.42412 | 36034 ft | 420 kts | 200° |
| 2026-05-05 17:41 | 39.13393 | -95.43000 | 36038 ft | 420 kts | 200° |
| 2026-05-05 17:41 | 39.07562 | -95.43596 | 36037 ft | 420 kts | 200° |
| 2026-05-05 17:42 | 39.01732 | -95.44189 | 36039 ft | 421 kts | 200° |
| 2026-05-05 17:42 | 38.95886 | -95.44775 | 36042 ft | 421 kts | 200° |
| 2026-05-05 17:43 | 38.90041 | -95.45355 | 36043 ft | 421 kts | 200° |
| 2026-05-05 17:43 | 38.84196 | -95.45943 | 36037 ft | 421 kts | 200° |
| 2026-05-05 17:44 | 38.78358 | -95.46533 | 36032 ft | 421 kts | 200° |
| 2026-05-05 17:44 | 38.72519 | -95.47118 | 36014 ft | 421 kts | 200° |
| 2026-05-05 17:45 | 38.66674 | -95.47696 | 36015 ft | 421 kts | 200° |
| 2026-05-05 17:45 | 38.60837 | -95.48265 | 36016 ft | 420 kts | 200° |
| 2026-05-05 17:46 | 38.55014 | -95.48854 | 36017 ft | 420 kts | 200° |
| 2026-05-05 17:46 | 38.49182 | -95.49443 | 36015 ft | 420 kts | 200° |
| 2026-05-05 17:47 | 38.43351 | -95.50020 | 36015 ft | 420 kts | 200° |
| 2026-05-05 17:47 | 38.37542 | -95.50597 | 36034 ft | 420 kts | 199° |
| 2026-05-05 17:48 | 38.31688 | -95.51176 | 36038 ft | 420 kts | 199° |
| 2026-05-05 17:48 | 38.25851 | -95.51747 | 36041 ft | 421 kts | 199° |
| 2026-05-05 17:49 | 38.20018 | -95.52325 | 36040 ft | 421 kts | 199° |
| 2026-05-05 17:49 | 38.14176 | -95.52908 | 36035 ft | 421 kts | 199° |
| 2026-05-05 17:50 | 38.08335 | -95.53486 | 36028 ft | 421 kts | 199° |
| 2026-05-05 17:50 | 38.02480 | -95.54055 | 36025 ft | 422 kts | 199° |
| 2026-05-05 17:51 | 37.96631 | -95.54627 | 36011 ft | 422 kts | 199° |
| 2026-05-05 17:51 | 37.90779 | -95.55203 | 35998 ft | 422 kts | 199° |
| 2026-05-05 17:52 | 37.84893 | -95.55778 | 35991 ft | 422 kts | 199° |
| 2026-05-05 17:52 | 37.79043 | -95.56347 | 35985 ft | 422 kts | 199° |
| 2026-05-05 17:53 | 37.73229 | -95.57062 | 35981 ft | 412 kts | 204° |
| 2026-05-05 17:53 | 37.67581 | -95.58271 | 35980 ft | 412 kts | 204° |
| 2026-05-05 17:54 | 37.61969 | -95.59471 | 35976 ft | 413 kts | 203° |
| 2026-05-05 17:54 | 37.56246 | -95.60389 | 35972 ft | 418 kts | 200° |
| 2026-05-05 17:55 | 37.50382 | -95.61102 | 35964 ft | 419 kts | 200° |
| 2026-05-05 17:55 | 37.44585 | -95.61823 | 35933 ft | 418 kts | 200° |
| 2026-05-05 17:56 | 37.38806 | -95.62614 | 35931 ft | 418 kts | 201° |
| 2026-05-05 17:56 | 37.33025 | -95.63425 | 35949 ft | 418 kts | 201° |
| 2026-05-05 17:57 | 37.27249 | -95.64230 | 35947 ft | 418 kts | 201° |
| 2026-05-05 17:57 | 37.21468 | -95.65029 | 35938 ft | 418 kts | 201° |
| 2026-05-05 17:58 | 37.15696 | -95.65823 | 35932 ft | 417 kts | 201° |
| 2026-05-05 17:58 | 37.09924 | -95.66614 | 35931 ft | 417 kts | 201° |
| 2026-05-05 17:59 | 37.04150 | -95.67391 | 35934 ft | 417 kts | 201° |
| 2026-05-05 17:59 | 36.98379 | -95.68176 | 35934 ft | 417 kts | 201° |
| 2026-05-05 18:00 | 36.92616 | -95.68973 | 35934 ft | 416 kts | 201° |
| 2026-05-05 18:00 | 36.86854 | -95.69759 | 35922 ft | 417 kts | 201° |
| 2026-05-05 18:01 | 36.81095 | -95.70538 | 35926 ft | 416 kts | 201° |
| 2026-05-05 18:01 | 36.75336 | -95.71324 | 35926 ft | 416 kts | 201° |
| 2026-05-05 18:02 | 36.69587 | -95.72100 | 35919 ft | 415 kts | 201° |
| 2026-05-05 18:02 | 36.63841 | -95.72869 | 35902 ft | 415 kts | 201° |
| 2026-05-05 18:03 | 36.58091 | -95.73644 | 35888 ft | 416 kts | 201° |
| 2026-05-05 18:03 | 36.52341 | -95.74421 | 35874 ft | 416 kts | 201° |
| 2026-05-05 18:04 | 36.46585 | -95.75200 | 35850 ft | 416 kts | 201° |
| 2026-05-05 18:04 | 36.41023 | -95.75951 | 35859 ft | 417 kts | 201° |
| 2026-05-05 18:05 | 36.35248 | -95.76724 | 35865 ft | 417 kts | 201° |
| 2026-05-05 18:05 | 36.29478 | -95.77502 | 35870 ft | 418 kts | 201° |
| 2026-05-05 18:06 | 36.23700 | -95.78272 | 35879 ft | 418 kts | 201° |
| 2026-05-05 18:06 | 36.18506 | -95.78942 | 35882 ft | 417 kts | 201° |
| 2026-05-05 18:07 | 36.12778 | -95.79880 | 35878 ft | 414 kts | 204° |
| 2026-05-05 18:07 | 36.07092 | -95.80945 | 35866 ft | 413 kts | 204° |
| 2026-05-05 18:08 | 36.01393 | -95.81979 | 35858 ft | 414 kts | 203° |
| 2026-05-05 18:08 | 35.95672 | -95.82967 | 35850 ft | 415 kts | 203° |
| 2026-05-05 18:09 | 35.89949 | -95.83942 | 35841 ft | 415 kts | 203° |
| 2026-05-05 18:09 | 35.84220 | -95.84914 | 35819 ft | 416 kts | 203° |
| 2026-05-05 18:10 | 35.78495 | -95.85903 | 35825 ft | 416 kts | 203° |
| 2026-05-05 18:10 | 35.72763 | -95.86890 | 35833 ft | 416 kts | 203° |
| 2026-05-05 18:11 | 35.67028 | -95.87872 | 35838 ft | 416 kts | 203° |
| 2026-05-05 18:11 | 35.62256 | -95.88680 | 35834 ft | 417 kts | 203° |
| 2026-05-05 18:12 | 35.56513 | -95.89662 | 35829 ft | 416 kts | 203° |
| 2026-05-05 18:12 | 35.50771 | -95.90645 | 35813 ft | 417 kts | 203° |
| 2026-05-05 18:13 | 35.45027 | -95.91626 | 35793 ft | 417 kts | 203° |
| 2026-05-05 18:13 | 35.39283 | -95.92606 | 35773 ft | 417 kts | 203° |
| 2026-05-05 18:14 | 35.33531 | -95.93577 | 35752 ft | 417 kts | 202° |
| 2026-05-05 18:14 | 35.27783 | -95.94549 | 35741 ft | 417 kts | 203° |
| 2026-05-05 18:15 | 35.22031 | -95.95524 | 35742 ft | 417 kts | 202° |
| 2026-05-05 18:15 | 35.16273 | -95.96499 | 35749 ft | 418 kts | 203° |
| 2026-05-05 18:16 | 35.10516 | -95.97470 | 35754 ft | 418 kts | 202° |
| 2026-05-05 18:16 | 35.04757 | -95.98439 | 35764 ft | 418 kts | 202° |
| 2026-05-05 18:17 | 34.98995 | -95.99404 | 35771 ft | 418 kts | 202° |
| 2026-05-05 18:17 | 34.93234 | -96.00370 | 35777 ft | 418 kts | 202° |
| 2026-05-05 18:18 | 34.87486 | -96.01341 | 35776 ft | 418 kts | 202° |
| 2026-05-05 18:18 | 34.81734 | -96.02310 | 35773 ft | 418 kts | 202° |
| 2026-05-05 18:19 | 34.75966 | -96.03273 | 35768 ft | 418 kts | 202° |
| 2026-05-05 18:19 | 34.70179 | -96.04240 | 35761 ft | 418 kts | 202° |
| 2026-05-05 18:20 | 34.64411 | -96.05202 | 35754 ft | 418 kts | 202° |
| 2026-05-05 18:20 | 34.58644 | -96.06164 | 35750 ft | 418 kts | 202° |
| 2026-05-05 18:21 | 34.52871 | -96.07125 | 35750 ft | 419 kts | 202° |
| 2026-05-05 18:21 | 34.47063 | -96.08090 | 35766 ft | 419 kts | 202° |
| 2026-05-05 18:22 | 34.41308 | -96.09045 | 35763 ft | 419 kts | 202° |
| 2026-05-05 18:22 | 34.35550 | -96.09994 | 35760 ft | 419 kts | 202° |
| 2026-05-05 18:23 | 34.29751 | -96.10950 | 35762 ft | 419 kts | 202° |
| 2026-05-05 18:23 | 34.24010 | -96.11901 | 35763 ft | 419 kts | 202° |
| 2026-05-05 18:24 | 34.18220 | -96.12861 | 35770 ft | 419 kts | 202° |
| 2026-05-05 18:24 | 34.12396 | -96.13821 | 35783 ft | 419 kts | 202° |
| 2026-05-05 18:25 | 34.06617 | -96.14769 | 35795 ft | 419 kts | 202° |
| 2026-05-05 18:25 | 34.00833 | -96.15725 | 35810 ft | 419 kts | 202° |
| 2026-05-05 18:26 | 33.95047 | -96.16681 | 35814 ft | 420 kts | 202° |
| 2026-05-05 18:26 | 33.89260 | -96.17627 | 35819 ft | 420 kts | 202° |
| 2026-05-05 18:27 | 33.83470 | -96.18564 | 35815 ft | 420 kts | 202° |
| 2026-05-05 18:27 | 33.77674 | -96.19511 | 35810 ft | 420 kts | 202° |
| 2026-05-05 18:28 | 33.68988 | -96.20931 | 35800 ft | 420 kts | 201° |
| 2026-05-05 18:28 | 33.63194 | -96.21872 | 35789 ft | 420 kts | 201° |
| 2026-05-05 18:29 | 33.57417 | -96.22817 | 35787 ft | 420 kts | 201° |
| 2026-05-05 18:29 | 33.51587 | -96.23695 | 35792 ft | 425 kts | 199° |
| 2026-05-05 18:30 | 33.45645 | -96.24126 | 35791 ft | 430 kts | 196° |
| 2026-05-05 18:30 | 33.39655 | -96.24378 | 35798 ft | 430 kts | 196° |
| 2026-05-05 18:31 | 33.33685 | -96.24696 | 35810 ft | 429 kts | 197° |
| 2026-05-05 18:31 | 33.27731 | -96.25092 | 35821 ft | 428 kts | 197° |
| 2026-05-05 18:32 | 33.21790 | -96.25503 | 35824 ft | 428 kts | 197° |
| 2026-05-05 18:32 | 33.15838 | -96.25898 | 35828 ft | 428 kts | 197° |
| 2026-05-05 18:33 | 33.09888 | -96.26284 | 35831 ft | 428 kts | 197° |
| 2026-05-05 18:33 | 33.03937 | -96.26670 | 35828 ft | 428 kts | 196° |
| 2026-05-05 18:34 | 32.97987 | -96.27050 | 35823 ft | 428 kts | 196° |
| 2026-05-05 18:34 | 32.92037 | -96.27437 | 35825 ft | 428 kts | 196° |
| 2026-05-05 18:35 | 32.86093 | -96.27826 | 35831 ft | 428 kts | 196° |
| 2026-05-05 18:35 | 32.80138 | -96.28210 | 35839 ft | 429 kts | 196° |
| 2026-05-05 18:36 | 32.74176 | -96.28596 | 35837 ft | 429 kts | 196° |
| 2026-05-05 18:36 | 32.68206 | -96.28989 | 35836 ft | 430 kts | 196° |
| 2026-05-05 18:37 | 32.62233 | -96.29370 | 35832 ft | 430 kts | 196° |
| 2026-05-05 18:37 | 32.56244 | -96.29746 | 35830 ft | 431 kts | 196° |
| 2026-05-05 18:38 | 32.50253 | -96.30130 | 35830 ft | 431 kts | 196° |
| 2026-05-05 18:38 | 32.44259 | -96.30518 | 35827 ft | 432 kts | 196° |
| 2026-05-05 18:39 | 32.38255 | -96.30910 | 35827 ft | 432 kts | 196° |
| 2026-05-05 18:39 | 32.32250 | -96.31292 | 35843 ft | 432 kts | 196° |
| 2026-05-05 18:40 | 32.26237 | -96.31669 | 35862 ft | 433 kts | 196° |
| 2026-05-05 18:40 | 32.20228 | -96.32052 | 35881 ft | 433 kts | 196° |
| 2026-05-05 18:41 | 32.14218 | -96.32439 | 35893 ft | 433 kts | 196° |
| 2026-05-05 18:41 | 32.08204 | -96.32823 | 35901 ft | 433 kts | 195° |
| 2026-05-05 18:42 | 32.02196 | -96.33202 | 35901 ft | 433 kts | 195° |
| 2026-05-05 18:42 | 31.96186 | -96.33580 | 35905 ft | 433 kts | 195° |
| 2026-05-05 18:43 | 31.90181 | -96.33962 | 35895 ft | 432 kts | 195° |
| 2026-05-05 18:43 | 31.84176 | -96.34346 | 35882 ft | 432 kts | 195° |
| 2026-05-05 18:44 | 31.78172 | -96.34726 | 35879 ft | 432 kts | 195° |
| 2026-05-05 18:44 | 31.72172 | -96.35110 | 35887 ft | 432 kts | 195° |
| 2026-05-05 18:45 | 31.66166 | -96.35487 | 35889 ft | 432 kts | 195° |
| 2026-05-05 18:45 | 31.60161 | -96.35862 | 35887 ft | 432 kts | 195° |
| 2026-05-05 18:46 | 31.54151 | -96.36236 | 35884 ft | 433 kts | 195° |
| 2026-05-05 18:46 | 31.48139 | -96.36620 | 35874 ft | 432 kts | 195° |
| 2026-05-05 18:47 | 31.42123 | -96.37004 | 35855 ft | 433 kts | 195° |
| 2026-05-05 18:47 | 31.36112 | -96.37378 | 35835 ft | 433 kts | 195° |
| 2026-05-05 18:48 | 31.30094 | -96.37744 | 35813 ft | 433 kts | 195° |
| 2026-05-05 18:48 | 31.24084 | -96.38120 | 35807 ft | 433 kts | 195° |
| 2026-05-05 18:49 | 31.18075 | -96.38502 | 35807 ft | 433 kts | 195° |
| 2026-05-05 18:49 | 31.12056 | -96.38877 | 35820 ft | 433 kts | 195° |
| 2026-05-05 18:50 | 31.06044 | -96.39252 | 35833 ft | 433 kts | 195° |
| 2026-05-05 18:50 | 31.01043 | -96.39569 | 35846 ft | 433 kts | 195° |
| 2026-05-05 18:51 | 30.95026 | -96.39944 | 35858 ft | 433 kts | 194° |
| 2026-05-05 18:51 | 30.89003 | -96.40310 | 35894 ft | 434 kts | 194° |
| 2026-05-05 18:52 | 30.82969 | -96.40672 | 35923 ft | 434 kts | 194° |
| 2026-05-05 18:52 | 30.76940 | -96.41044 | 35947 ft | 434 kts | 194° |
| 2026-05-05 18:53 | 30.70916 | -96.41421 | 35947 ft | 433 kts | 194° |
| 2026-05-05 18:53 | 30.64903 | -96.41801 | 35927 ft | 433 kts | 194° |
| 2026-05-05 18:54 | 30.59022 | -96.42661 | 35924 ft | 415 kts | 207° |
| 2026-05-05 18:54 | 30.53564 | -96.44766 | 35924 ft | 410 kts | 209° |
| 2026-05-05 18:55 | 30.48152 | -96.46883 | 35891 ft | 411 kts | 209° |
| 2026-05-05 18:55 | 30.42766 | -96.48978 | 35852 ft | 411 kts | 208° |
| 2026-05-05 18:56 | 30.37346 | -96.51076 | 35840 ft | 411 kts | 208° |
| 2026-05-05 18:56 | 30.31927 | -96.53174 | 35824 ft | 411 kts | 208° |
| 2026-05-05 18:57 | 30.26469 | -96.55290 | 35801 ft | 411 kts | 208° |
| 2026-05-05 18:57 | 30.21045 | -96.57387 | 35772 ft | 411 kts | 208° |
| 2026-05-05 18:58 | 30.15623 | -96.59484 | 35778 ft | 411 kts | 208° |
| 2026-05-05 18:58 | 30.10200 | -96.61579 | 35792 ft | 411 kts | 208° |
| 2026-05-05 18:59 | 30.04770 | -96.63675 | 35803 ft | 412 kts | 208° |
| 2026-05-05 18:59 | 29.99334 | -96.65768 | 35794 ft | 412 kts | 208° |
| 2026-05-05 19:00 | 29.93909 | -96.67859 | 35797 ft | 412 kts | 208° |
| 2026-05-05 19:00 | 29.88452 | -96.69950 | 35800 ft | 412 kts | 208° |
| 2026-05-05 19:01 | 29.83014 | -96.72031 | 35802 ft | 412 kts | 208° |
| 2026-05-05 19:01 | 29.77594 | -96.74112 | 35815 ft | 412 kts | 208° |
| 2026-05-05 19:02 | 29.72138 | -96.76209 | 35823 ft | 412 kts | 208° |
| 2026-05-05 19:02 | 29.66691 | -96.78297 | 35823 ft | 413 kts | 208° |
| 2026-05-05 19:03 | 29.61295 | -96.80352 | 35832 ft | 412 kts | 208° |
| 2026-05-05 19:03 | 29.55796 | -96.82452 | 35842 ft | 412 kts | 207° |
| 2026-05-05 19:04 | 29.50352 | -96.84522 | 35844 ft | 412 kts | 207° |
| 2026-05-05 19:04 | 29.44931 | -96.86584 | 35851 ft | 413 kts | 207° |
| 2026-05-05 19:05 | 29.39445 | -96.88675 | 35860 ft | 414 kts | 207° |
| 2026-05-05 19:05 | 29.33976 | -96.90759 | 35870 ft | 414 kts | 207° |
| 2026-05-05 19:06 | 29.28501 | -96.92829 | 35878 ft | 414 kts | 207° |
| 2026-05-05 19:06 | 29.23025 | -96.94902 | 35892 ft | 414 kts | 207° |
| 2026-05-05 19:07 | 29.17551 | -96.96979 | 35901 ft | 414 kts | 207° |
| 2026-05-05 19:07 | 29.12079 | -96.99056 | 35909 ft | 414 kts | 207° |
| 2026-05-05 19:08 | 29.06598 | -97.01120 | 35915 ft | 415 kts | 207° |
| 2026-05-05 19:08 | 29.01120 | -97.03184 | 35919 ft | 415 kts | 207° |
| 2026-05-05 19:09 | 28.95639 | -97.05248 | 35919 ft | 415 kts | 207° |
| 2026-05-05 19:09 | 28.90159 | -97.07312 | 35921 ft | 415 kts | 207° |
| 2026-05-05 19:10 | 28.84676 | -97.09379 | 35920 ft | 415 kts | 207° |
| 2026-05-05 19:10 | 28.79474 | -97.11335 | 35917 ft | 415 kts | 207° |
| 2026-05-05 19:11 | 28.73984 | -97.13390 | 35916 ft | 416 kts | 206° |
| 2026-05-05 19:11 | 28.68487 | -97.15453 | 35914 ft | 416 kts | 206° |
| 2026-05-05 19:12 | 28.62990 | -97.17510 | 35911 ft | 416 kts | 206° |
| 2026-05-05 19:12 | 28.57490 | -97.19569 | 35910 ft | 416 kts | 206° |
| 2026-05-05 19:13 | 28.51994 | -97.21628 | 35906 ft | 416 kts | 206° |
| 2026-05-05 19:13 | 28.46495 | -97.23677 | 35902 ft | 416 kts | 206° |
| 2026-05-05 19:14 | 28.40989 | -97.25722 | 35901 ft | 416 kts | 206° |
| 2026-05-05 19:14 | 28.35490 | -97.27777 | 35896 ft | 416 kts | 206° |
| 2026-05-05 19:15 | 28.29977 | -97.29828 | 35634 ft | 417 kts | 206° |
| 2026-05-05 19:15 | 28.27222 | -97.30851 | 35392 ft | 417 kts | 206° |
| 2026-05-05 19:15 | 28.24461 | -97.31876 | 35153 ft | 417 kts | 206° |
| 2026-05-05 19:16 | 28.21706 | -97.32897 | 34920 ft | 417 kts | 206° |
| 2026-05-05 19:16 | 28.18947 | -97.33921 | 34684 ft | 417 kts | 206° |
| 2026-05-05 19:16 | 28.16192 | -97.34946 | 34453 ft | 417 kts | 206° |
| 2026-05-05 19:16 | 28.13438 | -97.35969 | 34199 ft | 417 kts | 206° |
| 2026-05-05 19:17 | 28.10673 | -97.36996 | 33391 ft | 420 kts | 206° |
| 2026-05-05 19:17 | 28.07889 | -97.38026 | 32609 ft | 421 kts | 205° |
| 2026-05-05 19:17 | 28.05126 | -97.39041 | 32131 ft | 414 kts | 205° |
| 2026-05-05 19:17 | 28.02399 | -97.40044 | 31588 ft | 410 kts | 205° |
| 2026-05-05 19:18 | 27.99693 | -97.41041 | 31049 ft | 408 kts | 206° |
| 2026-05-05 19:18 | 27.97008 | -97.42035 | 30517 ft | 405 kts | 205° |
| 2026-05-05 19:18 | 27.94337 | -97.43023 | 29991 ft | 403 kts | 205° |
| 2026-05-05 19:18 | 27.91678 | -97.44003 | 29410 ft | 402 kts | 205° |
| 2026-05-05 19:19 | 27.88928 | -97.44711 | 28878 ft | 408 kts | 195° |
| 2026-05-05 19:19 | 27.86114 | -97.45127 | 28314 ft | 407 kts | 195° |
| 2026-05-05 19:19 | 27.83314 | -97.45535 | 27767 ft | 404 kts | 195° |
| 2026-05-05 19:19 | 27.80536 | -97.45943 | 27222 ft | 401 kts | 195° |
| 2026-05-05 19:20 | 27.77781 | -97.46352 | 26704 ft | 398 kts | 195° |
| 2026-05-05 19:20 | 27.75046 | -97.46758 | 26186 ft | 395 kts | 195° |
| 2026-05-05 19:20 | 27.72325 | -97.47165 | 25685 ft | 393 kts | 195° |
| 2026-05-05 19:20 | 27.69628 | -97.47570 | 25184 ft | 391 kts | 195° |
| 2026-05-05 19:21 | 27.66936 | -97.47971 | 24701 ft | 389 kts | 194° |
| 2026-05-05 19:21 | 27.64256 | -97.48365 | 24219 ft | 388 kts | 194° |
| 2026-05-05 19:21 | 27.61581 | -97.48755 | 23739 ft | 387 kts | 194° |
| 2026-05-05 19:21 | 27.58913 | -97.49148 | 23232 ft | 386 kts | 194° |
| 2026-05-05 19:22 | 27.56254 | -97.49541 | 22719 ft | 384 kts | 194° |
| 2026-05-05 19:22 | 27.53614 | -97.49929 | 22225 ft | 382 kts | 194° |
| 2026-05-05 19:22 | 27.50987 | -97.50315 | 21764 ft | 379 kts | 193° |
| 2026-05-05 19:22 | 27.48381 | -97.50700 | 21287 ft | 377 kts | 193° |
| 2026-05-05 19:23 | 27.45789 | -97.51084 | 20799 ft | 375 kts | 193° |
| 2026-05-05 19:23 | 27.43226 | -97.51463 | 20309 ft | 373 kts | 193° |
| 2026-05-05 19:23 | 27.40635 | -97.51845 | 19808 ft | 372 kts | 193° |
| 2026-05-05 19:23 | 27.38073 | -97.52224 | 19322 ft | 371 kts | 192° |
| 2026-05-05 19:24 | 27.35519 | -97.52602 | 18833 ft | 370 kts | 192° |
| 2026-05-05 19:24 | 27.32965 | -97.52976 | 18349 ft | 369 kts | 192° |
| 2026-05-05 19:24 | 27.30419 | -97.53351 | 17814 ft | 368 kts | 192° |
| 2026-05-05 19:24 | 27.27887 | -97.53725 | 17352 ft | 365 kts | 192° |
| 2026-05-05 19:25 | 27.25379 | -97.54091 | 16905 ft | 362 kts | 192° |
| 2026-05-05 19:25 | 27.22888 | -97.54453 | 16435 ft | 360 kts | 192° |
| 2026-05-05 19:25 | 27.20411 | -97.54815 | 15964 ft | 358 kts | 192° |
| 2026-05-05 19:25 | 27.17952 | -97.55177 | 15507 ft | 356 kts | 191° |
| 2026-05-05 19:26 | 27.15516 | -97.55534 | 15129 ft | 351 kts | 191° |
| 2026-05-05 19:26 | 27.13093 | -97.55887 | 14703 ft | 349 kts | 191° |
| 2026-05-05 19:26 | 27.10687 | -97.56240 | 14246 ft | 348 kts | 191° |
| 2026-05-05 19:26 | 27.08288 | -97.56594 | 13781 ft | 347 kts | 191° |
| 2026-05-05 19:27 | 27.05895 | -97.56944 | 13289 ft | 346 kts | 191° |
| 2026-05-05 19:27 | 27.03512 | -97.57295 | 12812 ft | 344 kts | 191° |
| 2026-05-05 19:27 | 27.01145 | -97.57645 | 12351 ft | 341 kts | 190° |
| 2026-05-05 19:27 | 26.98798 | -97.57990 | 11883 ft | 339 kts | 190° |
| 2026-05-05 19:28 | 26.96468 | -97.58328 | 11419 ft | 336 kts | 190° |
| 2026-05-05 19:28 | 26.94153 | -97.58661 | 10948 ft | 334 kts | 189° |
| 2026-05-05 19:28 | 26.92602 | -97.58885 | 10632 ft | 333 kts | 189° |
| 2026-05-05 19:28 | 26.90315 | -97.59218 | 10258 ft | 328 kts | 189° |
| 2026-05-05 19:29 | 26.88097 | -97.59541 | 10132 ft | 315 kts | 189° |
| 2026-05-05 19:29 | 26.85963 | -97.59850 | 10015 ft | 303 kts | 189° |
| 2026-05-05 19:29 | 26.83911 | -97.60147 | 9835 ft | 294 kts | 189° |
| 2026-05-05 19:29 | 26.81921 | -97.60438 | 9484 ft | 292 kts | 189° |
| 2026-05-05 19:30 | 26.79891 | -97.60737 | 8990 ft | 289 kts | 189° |
| 2026-05-05 19:30 | 26.77904 | -97.61030 | 8524 ft | 286 kts | 189° |
| 2026-05-05 19:30 | 26.75941 | -97.61317 | 8046 ft | 283 kts | 189° |
| 2026-05-05 19:30 | 26.73999 | -97.61599 | 7583 ft | 280 kts | 189° |
| 2026-05-05 19:31 | 26.72077 | -97.61877 | 7110 ft | 277 kts | 188° |
| 2026-05-05 19:31 | 26.70195 | -97.62151 | 6652 ft | 275 kts | 189° |
| 2026-05-05 19:31 | 26.68284 | -97.62431 | 6180 ft | 272 kts | 189° |
| 2026-05-05 19:31 | 26.66416 | -97.62702 | 5695 ft | 269 kts | 188° |
| 2026-05-05 19:32 | 26.64565 | -97.62969 | 5191 ft | 267 kts | 188° |
| 2026-05-05 19:32 | 26.62817 | -97.63221 | 4659 ft | 263 kts | 188° |
| 2026-05-05 19:32 | 26.61047 | -97.63476 | 4076 ft | 260 kts | 188° |
| 2026-05-05 19:32 | 26.59268 | -97.63735 | 3525 ft | 255 kts | 187° |
| 2026-05-05 19:33 | 26.57524 | -97.63989 | 3086 ft | 246 kts | 186° |
| 2026-05-05 19:33 | 26.55902 | -97.64225 | 2991 ft | 223 kts | 185° |
| 2026-05-05 19:33 | 26.54449 | -97.64438 | 2993 ft | 202 kts | 186° |
| 2026-05-05 19:33 | 26.53069 | -97.64638 | 2995 ft | 198 kts | 185° |
| 2026-05-05 19:34 | 26.51709 | -97.64834 | 2997 ft | 197 kts | 186° |
| 2026-05-05 19:34 | 26.50348 | -97.65029 | 2997 ft | 197 kts | 185° |
| 2026-05-05 19:34 | 26.48989 | -97.65260 | 2999 ft | 198 kts | 190° |
| 2026-05-05 19:35 | 26.46259 | -97.65566 | 3002 ft | 197 kts | 181° |
| 2026-05-05 19:35 | 26.44898 | -97.65597 | 3000 ft | 196 kts | 180° |
| 2026-05-05 19:35 | 26.43532 | -97.65617 | 3001 ft | 196 kts | 180° |
| 2026-05-05 19:35 | 26.42166 | -97.65634 | 3003 ft | 197 kts | 180° |
| 2026-05-05 19:36 | 26.40836 | -97.65651 | 3000 ft | 185 kts | 180° |
| 2026-05-05 19:36 | 26.39571 | -97.65666 | 2914 ft | 182 kts | 180° |
| 2026-05-05 19:36 | 26.38331 | -97.65682 | 2734 ft | 175 kts | 179° |
| 2026-05-05 19:36 | 26.37133 | -97.65696 | 2509 ft | 170 kts | 179° |
| 2026-05-05 19:37 | 26.35977 | -97.65711 | 2308 ft | 164 kts | 180° |
| 2026-05-05 19:37 | 26.34852 | -97.65724 | 2105 ft | 158 kts | 180° |
| 2026-05-05 19:37 | 26.33794 | -97.65738 | 1911 ft | 147 kts | 179° |
| 2026-05-05 19:37 | 26.32814 | -97.65750 | 1735 ft | 132 kts | 178° |
| 2026-05-05 19:38 | 26.31934 | -97.65761 | 1567 ft | 123 kts | 180° |
| 2026-05-05 19:38 | 26.31079 | -97.65771 | 1409 ft | 123 kts | 180° |
| 2026-05-05 19:38 | 26.30239 | -97.65781 | 1264 ft | 120 kts | 179° |
| 2026-05-05 19:38 | 26.29400 | -97.65791 | 1096 ft | 121 kts | 180° |
| 2026-05-05 19:39 | 26.28563 | -97.65801 | 941 ft | 123 kts | 178° |
| 2026-05-05 19:39 | 26.27716 | -97.65812 | 796 ft | 121 kts | 180° |
| 2026-05-05 19:39 | 26.26872 | -97.65822 | 643 ft | 121 kts | 179° |
| 2026-05-05 19:39 | 26.26044 | -97.65833 | 470 ft | 118 kts | 179° |
| 2026-05-05 19:40 | 26.25216 | -97.65851 | 274 ft | 124 kts | 181° |
| 2026-05-05 19:40 | 26.24368 | -97.65858 | 149 ft | 120 kts | 180° |
| 2026-05-05 19:40 | 26.23555 | -97.65853 | 51 ft | 105 kts | 182° |
| 2026-05-05 19:40 | 26.22976 | -97.65870 | 45 ft | 59 kts | 180° |
| 2026-05-05 19:41 | 26.22655 | -97.65876 | 49 ft | 40 kts | 181° |
| 2026-05-05 19:41 | 26.22421 | -97.65879 | 52 ft | 23 kts | 181° |
| 2026-05-05 19:41 | 26.22370 | -97.65977 | 50 ft | 17 kts | 272° |
| 2026-05-05 19:41 | 26.22384 | -97.66038 | 47 ft | 5 kts | 326° |
| 2026-05-05 19:42 | 26.22425 | -97.66044 | 49 ft | 7 kts | 3° |
| 2026-05-05 19:42 | 26.22476 | -97.66041 | 49 ft | 8 kts | 2° |
| 2026-05-05 19:42 | 26.22503 | -97.66067 | 49 ft | 6 kts | 270° |
| 2026-05-05 19:42 | 26.22503 | -97.66118 | 48 ft | 6 kts | 270° |
| 2026-05-05 19:43 | 26.22503 | -97.66127 | 48 ft | 0 kts | 271° |